createdAt,value
2022-10-28T00:01:07.954Z,4.30
2022-10-28T00:03:38.763Z,3.67
2022-10-28T00:06:08.327Z,5.22
2022-10-28T00:08:35.263Z,4.00
2022-10-28T00:11:07.227Z,3.92
2022-10-28T00:13:35.108Z,4.00
2022-10-28T00:16:17.396Z,4.03
2022-10-28T00:18:44.793Z,3.33
2022-10-28T00:21:18.046Z,4.32
2022-10-28T00:23:45.507Z,3.70
2022-10-28T00:26:19.770Z,3.58
2022-10-28T00:28:49.518Z,3.97
2022-10-28T00:31:18.590Z,3.72
2022-10-28T00:33:45.955Z,4.45
2022-10-28T00:36:17.553Z,3.78
2022-10-28T00:38:47.903Z,4.18
2022-10-28T00:41:19.197Z,3.40
2022-10-28T00:43:50.413Z,3.20
2022-10-28T00:46:23.534Z,4.20
2022-10-28T00:48:55.453Z,3.50
2022-10-28T00:51:24.529Z,3.50
2022-10-28T00:53:53.935Z,3.50
2022-10-28T00:56:22.322Z,3.47
2022-10-28T00:58:50.180Z,3.38
2022-10-28T01:01:17.210Z,3.78
2022-10-28T01:03:44.255Z,3.70
2022-10-28T01:06:11.192Z,3.35
2022-10-28T01:08:38.271Z,3.90
2022-10-28T01:11:24.137Z,3.78
2022-10-28T01:14:32.355Z,3.70
2022-10-28T01:17:05.256Z,3.97
2022-10-28T01:20:18.711Z,3.60
2022-10-28T01:22:57.886Z,3.40
2022-10-28T01:25:46.867Z,3.78
2022-10-28T01:29:10.669Z,3.67
2022-10-28T01:31:53.717Z,3.47
2022-10-28T01:34:35.911Z,3.30
2022-10-28T01:37:03.028Z,2.97
2022-10-28T01:40:07.481Z,3.03
2022-10-28T01:42:54.032Z,3.15
2022-10-28T01:45:34.735Z,2.92
2022-10-28T01:48:09.684Z,2.95
2022-10-28T01:50:55.656Z,3.45
2022-10-28T01:53:27.861Z,3.58
2022-10-28T01:55:57.827Z,3.60
2022-10-28T01:58:29.740Z,2.92
2022-10-28T02:00:59.679Z,2.90
2022-10-28T02:03:27.996Z,3.40
2022-10-28T02:05:57.429Z,2.72
2022-10-28T02:08:46.334Z,3.95
2022-10-28T02:11:22.268Z,3.65
2022-10-28T02:13:58.335Z,3.10
2022-10-28T02:16:58.544Z,2.85
2022-10-28T02:19:49.931Z,2.45
2022-10-28T02:22:40.814Z,3.00
2022-10-28T02:25:09.914Z,2.70
2022-10-28T02:27:41.967Z,3.10
2022-10-28T02:30:14.086Z,2.65
2022-10-28T02:32:45.054Z,4.00
2022-10-28T02:35:21.242Z,3.13
2022-10-28T02:37:51.177Z,2.38
2022-10-28T02:40:26.387Z,2.05
2022-10-28T02:42:57.393Z,2.50
2022-10-28T02:45:45.113Z,2.60
2022-10-28T02:48:18.564Z,2.60
2022-10-28T02:50:55.740Z,3.22
2022-10-28T02:53:36.514Z,2.90
2022-10-28T02:56:06.140Z,2.42
2022-10-28T02:58:40.778Z,2.85
2022-10-28T03:01:08.132Z,2.17
2022-10-28T03:03:35.328Z,2.35
2022-10-28T03:06:02.333Z,2.22
2022-10-28T03:08:29.314Z,2.78
2022-10-28T03:10:56.353Z,2.42
2022-10-28T03:13:23.435Z,2.60
2022-10-28T03:15:50.486Z,2.55
2022-10-28T03:18:17.474Z,2.58
2022-10-28T03:20:44.437Z,2.60
2022-10-28T03:23:11.461Z,2.53
2022-10-28T03:25:38.572Z,2.60
2022-10-28T03:28:05.687Z,2.45
2022-10-28T03:30:32.655Z,2.47
2022-10-28T03:32:59.632Z,2.70
2022-10-28T03:35:26.702Z,2.58
2022-10-28T03:37:53.699Z,2.33
2022-10-28T03:40:20.726Z,2.88
2022-10-28T03:42:47.782Z,2.40
2022-10-28T03:45:15.005Z,2.90
2022-10-28T03:47:43.272Z,3.22
2022-10-28T03:50:10.544Z,2.72
2022-10-28T03:52:37.766Z,3.08
2022-10-28T03:55:05.407Z,2.97
2022-10-28T03:57:33.659Z,2.50
2022-10-28T04:00:00.740Z,2.88
2022-10-28T04:02:27.928Z,3.05
2022-10-28T04:04:55.098Z,3.10
2022-10-28T04:07:22.518Z,2.95
2022-10-28T04:09:51.448Z,3.00
2022-10-28T04:12:19.101Z,2.05
2022-10-28T04:14:46.124Z,2.92
2022-10-28T04:17:13.371Z,2.50
2022-10-28T04:19:40.368Z,2.75
2022-10-28T04:22:09.211Z,3.47
2022-10-28T04:24:36.229Z,3.05
2022-10-28T04:27:03.352Z,3.65
2022-10-28T04:29:32.324Z,3.53
2022-10-28T04:31:59.636Z,3.50
2022-10-28T04:34:26.822Z,3.15
2022-10-28T04:36:53.882Z,3.25
2022-10-28T04:39:20.887Z,3.05
2022-10-28T04:41:47.957Z,2.60
2022-10-28T04:44:14.932Z,3.50
2022-10-28T04:46:42.441Z,3.42
2022-10-28T04:49:09.986Z,2.80
2022-10-28T04:51:36.988Z,3.05
2022-10-28T04:54:04.185Z,3.38
2022-10-28T04:56:33.260Z,3.50
2022-10-28T04:59:00.268Z,2.90
2022-10-28T05:01:27.431Z,3.30
2022-10-28T05:03:54.530Z,2.78
2022-10-28T05:06:21.466Z,2.58
2022-10-28T05:08:48.401Z,2.58
2022-10-28T05:11:15.390Z,2.75
2022-10-28T05:13:42.341Z,2.65
2022-10-28T05:16:09.420Z,2.80
2022-10-28T05:18:36.413Z,3.70
2022-10-28T05:21:03.503Z,3.40
2022-10-28T05:23:31.062Z,2.75
2022-10-28T05:25:58.188Z,2.67
2022-10-28T05:28:25.217Z,2.50
2022-10-28T05:30:52.193Z,3.38
2022-10-28T05:33:20.450Z,3.00
2022-10-28T05:35:47.616Z,2.83
2022-10-28T05:38:14.657Z,2.25
2022-10-28T05:40:41.727Z,2.38
2022-10-28T05:43:10.063Z,2.28
2022-10-28T05:45:37.132Z,3.08
2022-10-28T05:48:04.295Z,2.58
2022-10-28T05:50:31.237Z,2.97
2022-10-28T05:52:58.388Z,3.00
2022-10-28T05:55:28.433Z,2.97
2022-10-28T05:57:56.889Z,2.75
2022-10-28T06:00:25.939Z,3.47
2022-10-28T06:02:53.255Z,2.78
2022-10-28T06:05:20.629Z,3.45
2022-10-28T06:07:47.618Z,3.17
2022-10-28T06:10:14.589Z,3.13
2022-10-28T06:12:40.025Z,3.05
2022-10-28T06:15:07.389Z,2.50
2022-10-28T06:17:34.380Z,2.35
2022-10-28T06:20:02.026Z,2.53
2022-10-28T06:22:29.060Z,2.42
2022-10-28T06:24:56.107Z,2.45
2022-10-28T06:27:23.067Z,2.35
2022-10-28T06:29:50.015Z,2.60
2022-10-28T06:32:16.948Z,2.45
2022-10-28T06:34:43.903Z,2.60
2022-10-28T06:37:10.874Z,2.92
2022-10-28T06:39:38.480Z,2.58
2022-10-28T06:42:05.557Z,3.47
2022-10-28T06:44:32.562Z,3.10
2022-10-28T06:47:01.052Z,2.92
2022-10-28T06:49:29.344Z,3.80
2022-10-28T06:51:56.275Z,3.13
2022-10-28T06:54:23.224Z,2.85
2022-10-28T06:56:50.235Z,3.63
2022-10-28T06:59:17.230Z,2.92
2022-10-28T07:01:44.350Z,3.45
2022-10-28T07:04:13.066Z,3.15
2022-10-28T07:06:40.474Z,3.42
2022-10-28T07:09:08.016Z,3.15
2022-10-28T07:11:35.018Z,2.90
2022-10-28T07:14:02.258Z,3.38
2022-10-28T07:16:29.197Z,2.70
2022-10-28T07:18:56.150Z,2.97
2022-10-28T07:21:28.417Z,3.38
2022-10-28T07:23:58.667Z,3.38
2022-10-28T07:26:25.774Z,3.42
2022-10-28T07:28:52.706Z,4.40
2022-10-28T07:31:19.695Z,3.60
2022-10-28T07:33:52.772Z,7.43
2022-10-28T07:36:20.394Z,8.60
2022-10-28T07:38:51.838Z,8.90
2022-10-28T07:41:21.172Z,6.47
2022-10-28T07:43:48.247Z,6.40
2022-10-28T07:46:15.694Z,6.68
2022-10-28T07:48:42.783Z,3.40
2022-10-28T07:51:13.282Z,2.33
2022-10-28T07:53:40.953Z,3.60
2022-10-28T07:56:10.369Z,3.58
2022-10-28T07:58:37.481Z,8.68
2022-10-28T08:01:06.925Z,6.05
2022-10-28T08:03:38.685Z,3.92
2022-10-28T08:06:18.277Z,5.15
2022-10-28T08:08:53.385Z,4.05
2022-10-28T08:11:24.679Z,6.63
2022-10-28T08:13:53.011Z,8.02
2022-10-28T08:16:20.148Z,10.73
2022-10-28T08:18:47.363Z,5.88
2022-10-28T08:21:15.497Z,6.18
2022-10-28T08:23:46.819Z,7.60
2022-10-28T08:26:16.080Z,6.47
2022-10-28T08:28:43.461Z,10.93
2022-10-28T08:31:12.416Z,8.43
2022-10-28T08:33:45.381Z,4.18
2022-10-28T08:36:15.701Z,5.90
2022-10-28T08:38:48.765Z,10.63
2022-10-28T08:44:41.612Z,9.40
2022-10-28T08:47:32.897Z,6.47
2022-10-28T08:50:05.589Z,6.70
2022-10-28T08:52:42.328Z,8.55
2022-10-28T08:55:38.610Z,5.80
2022-10-28T08:58:13.288Z,5.97
2022-10-28T09:00:43.335Z,5.60
2022-10-28T09:03:13.265Z,5.32
2022-10-28T09:05:43.310Z,5.03
2022-10-28T09:08:31.605Z,5.00
2022-10-28T09:11:10.663Z,6.57
2022-10-28T09:13:54.431Z,6.05
2022-10-28T09:16:21.338Z,7.18
2022-10-28T09:18:55.636Z,5.63
2022-10-28T09:21:32.783Z,7.85
2022-10-28T09:24:07.030Z,7.03
2022-10-28T09:26:56.866Z,7.38
2022-10-28T09:29:53.596Z,6.97
2022-10-28T09:32:23.282Z,8.80
2022-10-28T09:35:13.993Z,8.02
2022-10-28T09:37:55.351Z,8.75
2022-10-28T09:40:28.594Z,7.57
2022-10-28T09:43:39.834Z,8.95
2022-10-28T09:46:12.662Z,8.15
2022-10-28T09:48:44.681Z,7.80
2022-10-28T10:26:57.928Z,8.35
2022-10-28T10:42:17.423Z,8.20
2022-10-28T10:49:38.559Z,7.30
2022-10-28T10:52:19.057Z,7.30
2022-10-28T10:57:25.914Z,7.00
2022-10-28T10:59:54.554Z,6.65
2022-10-28T11:07:25.497Z,8.10
2022-10-28T11:15:09.707Z,7.65
2022-10-28T11:17:36.697Z,7.43
2022-10-28T11:20:25.575Z,6.77
2022-10-28T11:22:59.064Z,7.30
2022-10-28T11:25:37.277Z,6.95
2022-10-28T12:39:01.971Z,5.05
2022-10-28T12:42:04.885Z,5.00
2022-10-28T12:44:34.564Z,6.43
2022-10-28T12:47:23.050Z,5.55
2022-10-28T12:50:02.842Z,5.32
2022-10-28T12:53:15.905Z,5.53
2022-10-28T12:55:56.579Z,5.43
2022-10-28T12:58:51.085Z,5.78
2022-10-28T13:01:20.987Z,5.72
2022-10-28T13:03:50.658Z,5.80
2022-10-28T13:06:17.563Z,5.72
2022-10-28T13:09:03.406Z,5.22
2022-10-28T13:11:48.745Z,6.32
2022-10-28T13:14:33.605Z,5.50
2022-10-28T13:17:09.399Z,6.07
2022-10-28T13:19:55.017Z,6.50
2022-10-28T13:22:52.392Z,5.93
2022-10-28T13:25:22.225Z,6.10
2022-10-28T13:27:58.880Z,5.65
2022-10-28T13:30:27.075Z,5.10
2022-10-28T13:33:16.761Z,6.30
2022-10-28T13:35:44.475Z,5.15
2022-10-28T13:38:13.314Z,9.43
2022-10-28T13:40:40.198Z,8.80
2022-10-28T13:43:21.543Z,8.10
2022-10-28T13:45:54.445Z,8.00
2022-10-28T13:48:30.604Z,6.07
2022-10-28T13:51:09.685Z,6.07
2022-10-28T13:53:45.661Z,4.43
2022-10-28T13:56:27.885Z,4.88
2022-10-28T13:59:29.318Z,4.68
2022-10-28T14:02:07.818Z,6.28
2022-10-28T14:04:43.921Z,6.32
2022-10-28T14:07:10.902Z,4.53
2022-10-28T14:09:41.415Z,4.90
2022-10-28T14:12:28.788Z,5.30
2022-10-28T14:15:02.823Z,4.72
2022-10-28T14:17:37.596Z,4.97
2022-10-28T14:20:08.538Z,5.75
2022-10-28T14:22:36.799Z,4.63
2022-10-28T14:25:41.830Z,4.43
2022-10-28T14:28:30.334Z,4.72
2022-10-28T14:31:10.100Z,4.25
2022-10-28T14:33:43.296Z,4.40
2022-10-28T14:39:08.456Z,4.68
2022-10-28T14:41:44.243Z,4.47
2022-10-28T14:44:29.783Z,4.18
2022-10-28T14:47:15.650Z,5.00
2022-10-28T14:50:06.196Z,5.18
2022-10-28T14:52:37.026Z,5.22
2022-10-28T14:55:08.327Z,5.13
2022-10-28T14:57:35.528Z,4.97
2022-10-28T15:00:05.816Z,5.00
2022-10-28T15:02:35.674Z,5.00
2022-10-28T15:05:26.293Z,5.43
2022-10-28T15:07:53.986Z,6.03
2022-10-28T15:10:29.695Z,8.63
2022-10-28T15:12:58.845Z,11.43
2022-10-28T15:15:28.312Z,11.90
2022-10-28T15:17:55.966Z,9.05
2022-10-28T15:20:25.867Z,9.02
2022-10-28T15:22:54.622Z,7.95
2022-10-28T15:25:23.009Z,7.75
2022-10-28T15:27:54.102Z,8.40
2022-10-28T15:30:23.892Z,7.38
2022-10-28T15:32:52.305Z,7.20
2022-10-28T15:35:35.683Z,7.47
2022-10-28T15:38:23.471Z,6.88
2022-10-28T15:40:50.623Z,7.30
2022-10-28T15:43:25.808Z,6.72
2022-10-28T15:45:53.525Z,7.15
2022-10-28T15:48:25.024Z,6.97
2022-10-28T15:51:14.825Z,6.53
2022-10-28T15:53:48.969Z,7.35
2022-10-28T15:56:23.195Z,7.18
2022-10-28T15:59:07.732Z,6.82
2022-10-28T16:01:39.857Z,6.47
2022-10-28T16:04:45.369Z,7.43
2022-10-28T16:07:12.515Z,8.05
2022-10-28T16:09:46.595Z,7.18
2022-10-28T16:12:23.052Z,6.85
2022-10-28T16:14:57.027Z,7.03
2022-10-28T16:17:27.808Z,7.25
2022-10-28T16:20:04.202Z,6.43
2022-10-28T16:22:34.615Z,7.43
2022-10-28T16:25:01.613Z,7.00
2022-10-28T16:27:31.682Z,7.63
2022-10-28T16:29:59.021Z,7.07
2022-10-28T16:32:50.327Z,7.25
2022-10-28T16:35:21.481Z,6.93
2022-10-28T16:37:53.806Z,7.25
2022-10-28T16:40:49.653Z,8.68
2022-10-28T16:43:16.370Z,8.00
2022-10-28T16:45:44.089Z,7.60
2022-10-28T16:48:13.469Z,7.60
2022-10-28T16:50:42.891Z,7.88
2022-10-28T16:53:12.765Z,7.10
2022-10-28T16:55:40.795Z,7.25
2022-10-28T16:58:07.955Z,7.20
2022-10-28T17:00:36.660Z,7.25
2022-10-28T17:03:03.660Z,7.63
2022-10-28T17:05:30.994Z,7.63
2022-10-28T17:07:58.925Z,7.95
2022-10-28T17:10:26.970Z,8.68
2022-10-28T17:12:54.087Z,9.25
2022-10-28T17:15:21.286Z,8.32
2022-10-28T17:17:53.108Z,8.35
2022-10-28T17:20:20.747Z,8.07
2022-10-28T17:22:47.692Z,8.75
2022-10-28T17:25:14.752Z,8.25
2022-10-28T17:27:42.344Z,7.72
2022-10-28T17:30:09.884Z,8.13
2022-10-28T17:32:36.929Z,7.40
2022-10-28T17:35:04.150Z,7.85
2022-10-28T17:37:32.640Z,7.03
2022-10-28T17:40:00.116Z,7.70
2022-10-28T17:42:27.179Z,7.47
2022-10-28T17:44:54.330Z,7.97
2022-10-28T17:47:21.645Z,7.70
2022-10-28T17:49:48.910Z,8.20
2022-10-28T17:52:16.064Z,8.63
2022-10-28T17:54:43.045Z,8.15
2022-10-28T17:57:10.027Z,7.53
2022-10-28T17:59:37.123Z,7.57
2022-10-28T18:02:04.216Z,6.82
2022-10-28T18:04:31.301Z,5.95
2022-10-28T18:06:58.415Z,6.30
2022-10-28T18:09:27.660Z,6.10
2022-10-28T18:11:54.794Z,6.20
2022-10-28T18:14:21.918Z,6.50
2022-10-28T18:16:50.357Z,5.47
2022-10-28T18:19:18.377Z,5.03
2022-10-28T18:21:45.520Z,6.05
2022-10-28T18:24:12.536Z,5.95
2022-10-28T18:26:40.198Z,6.80
2022-10-28T18:29:10.117Z,5.53
2022-10-28T18:31:38.496Z,5.00
2022-10-28T18:34:05.550Z,7.05
2022-10-28T18:36:35.606Z,4.70
2022-10-28T18:39:05.370Z,5.53
2022-10-28T18:41:34.475Z,4.68
2022-10-28T18:44:03.947Z,4.43
2022-10-28T18:46:35.558Z,3.75
2022-10-28T18:49:05.514Z,4.53
2022-10-28T18:51:34.760Z,4.70
2022-10-28T18:54:01.917Z,4.85
2022-10-28T18:56:30.244Z,5.00
2022-10-28T18:58:58.430Z,4.50
2022-10-28T19:01:27.863Z,4.75
2022-10-28T19:03:58.245Z,4.68
2022-10-28T19:06:29.860Z,4.30
2022-10-28T19:08:59.594Z,4.70
2022-10-28T19:11:30.264Z,4.30
2022-10-28T19:14:02.905Z,4.95
2022-10-28T19:16:31.979Z,4.18
2022-10-28T19:19:00.096Z,4.45
2022-10-28T19:21:27.939Z,3.72
2022-10-28T19:23:55.466Z,3.75
2022-10-28T19:26:23.378Z,3.92
2022-10-28T19:28:51.680Z,3.30
2022-10-28T19:31:21.047Z,3.53
2022-10-28T19:33:48.518Z,3.65
2022-10-28T19:36:23.951Z,4.10
2022-10-28T19:38:53.748Z,3.85
2022-10-28T19:41:26.457Z,3.67
2022-10-28T19:43:59.061Z,3.85
2022-10-28T19:46:27.890Z,4.13
2022-10-28T19:48:57.818Z,3.97
2022-10-28T19:51:27.648Z,3.45
2022-10-28T19:54:03.185Z,3.80
2022-10-28T19:56:48.101Z,3.10
2022-10-28T19:59:15.172Z,3.17
2022-10-28T20:01:42.389Z,3.72
2022-10-28T20:04:10.278Z,3.88
2022-10-28T20:06:39.520Z,4.25
2022-10-28T20:09:07.326Z,3.20
2022-10-28T20:11:37.796Z,2.88
2022-10-28T20:14:11.771Z,3.15
2022-10-28T20:16:42.642Z,3.45
2022-10-28T20:19:10.213Z,3.63
2022-10-28T20:21:38.670Z,3.20
2022-10-28T20:24:06.981Z,3.17
2022-10-28T20:26:35.820Z,3.38
2022-10-28T20:29:03.063Z,3.50
2022-10-28T20:31:31.388Z,3.20
2022-10-28T20:34:01.609Z,3.30
2022-10-28T20:36:29.746Z,3.65
2022-10-28T20:38:59.817Z,3.05
2022-10-28T20:41:29.306Z,3.00
2022-10-28T20:43:56.635Z,3.63
2022-10-28T20:46:25.100Z,2.67
2022-10-28T20:48:56.643Z,3.65
2022-10-28T20:51:25.450Z,3.13
2022-10-28T20:53:52.829Z,3.05
2022-10-28T20:56:25.020Z,3.40
2022-10-28T20:58:53.027Z,3.00
2022-10-28T21:01:22.534Z,3.47
2022-10-28T21:03:52.915Z,3.92
2022-10-28T21:06:20.706Z,3.70
2022-10-28T21:08:47.948Z,3.05
2022-10-28T21:11:16.540Z,3.30
2022-10-28T21:13:46.179Z,3.40
2022-10-28T21:16:13.537Z,3.35
2022-10-28T21:18:41.254Z,3.60
2022-10-28T21:21:08.317Z,3.50
2022-10-28T21:23:35.280Z,3.60
2022-10-28T21:26:05.570Z,3.03
2022-10-28T21:28:33.876Z,3.35
2022-10-28T21:31:05.870Z,3.42
2022-10-28T21:33:35.183Z,3.25
2022-10-28T21:36:05.594Z,3.30
2022-10-28T21:38:33.299Z,3.80
2022-10-28T21:41:03.227Z,3.13
2022-10-28T21:43:35.949Z,3.58
2022-10-28T21:46:03.745Z,3.70
2022-10-28T21:48:32.521Z,3.28
2022-10-28T21:51:02.293Z,3.50
2022-10-28T21:53:32.696Z,3.97
2022-10-28T21:56:10.019Z,3.83
2022-10-28T21:58:39.613Z,3.70
2022-10-28T22:01:08.169Z,2.80
2022-10-28T22:03:35.751Z,2.78
2022-10-28T22:06:02.878Z,3.28
2022-10-28T22:08:30.476Z,3.08
2022-10-28T22:11:04.961Z,3.33
2022-10-28T22:13:32.562Z,3.00
2022-10-28T22:16:01.365Z,3.03
2022-10-28T22:18:29.643Z,3.40
2022-10-28T22:20:57.204Z,3.83
2022-10-28T22:23:24.158Z,3.20
2022-10-28T22:25:51.112Z,3.38
2022-10-28T22:28:18.044Z,3.10
2022-10-28T22:30:44.973Z,3.30
2022-10-28T22:33:11.942Z,3.22
2022-10-28T22:35:38.878Z,3.05
2022-10-28T22:38:05.806Z,3.50
2022-10-28T22:40:32.686Z,3.53
2022-10-28T22:42:59.628Z,2.83
2022-10-28T22:45:26.522Z,3.47
2022-10-28T22:47:54.095Z,3.33
2022-10-28T22:50:21.388Z,3.40
2022-10-28T22:52:48.591Z,3.97
2022-10-28T22:55:15.817Z,3.70
2022-10-28T22:57:42.790Z,3.60
2022-10-28T23:00:10.709Z,3.10
2022-10-28T23:02:37.797Z,3.40
2022-10-28T23:05:05.289Z,3.58
2022-10-28T23:07:32.257Z,4.07
2022-10-28T23:10:00.531Z,3.25
2022-10-28T23:12:27.583Z,3.72
2022-10-28T23:14:54.933Z,3.70
2022-10-28T23:17:21.899Z,3.55
2022-10-28T23:19:48.860Z,4.32
2022-10-28T23:22:15.855Z,4.25
2022-10-28T23:24:42.825Z,4.00
2022-10-28T23:27:09.883Z,4.00
2022-10-28T23:29:37.002Z,4.50
2022-10-28T23:32:04.092Z,3.25
2022-10-28T23:34:31.242Z,3.33
2022-10-28T23:36:58.220Z,3.75
2022-10-28T23:39:25.264Z,4.65
2022-10-28T23:41:52.209Z,4.18
2022-10-28T23:44:19.160Z,3.67
2022-10-28T23:46:46.252Z,3.85
2022-10-28T23:49:13.280Z,3.83
2022-10-28T23:51:40.252Z,4.03
2022-10-28T23:54:07.279Z,4.65
2022-10-28T23:56:34.350Z,4.50
2022-10-28T23:59:01.305Z,3.95
